sensor_id;sensor_type;location;lat;lon;timestamp;temperature;humidity
67050;DHT22;53955;52.442;13.284;2023-07-16T00:02:07;26.70;51.60
67050;DHT22;53955;52.442;13.284;2023-07-16T00:04:34;26.70;51.60
67050;DHT22;53955;52.442;13.284;2023-07-16T00:07:00;26.60;51.30
67050;DHT22;53955;52.442;13.284;2023-07-16T00:09:27;26.50;51.70
67050;DHT22;53955;52.442;13.284;2023-07-16T00:11:54;26.40;51.30
67050;DHT22;53955;52.442;13.284;2023-07-16T00:14:22;26.40;52.00
67050;DHT22;53955;52.442;13.284;2023-07-16T00:16:48;26.30;53.40
67050;DHT22;53955;52.442;13.284;2023-07-16T00:19:15;26.30;53.80
67050;DHT22;53955;52.442;13.284;2023-07-16T00:21:41;26.40;52.00
67050;DHT22;53955;52.442;13.284;2023-07-16T00:24:08;26.30;53.90
67050;DHT22;53955;52.442;13.284;2023-07-16T00:26:35;26.30;54.80
67050;DHT22;53955;52.442;13.284;2023-07-16T00:29:01;26.40;53.40
67050;DHT22;53955;52.442;13.284;2023-07-16T00:31:29;26.40;53.60
67050;DHT22;53955;52.442;13.284;2023-07-16T00:33:56;26.40;53.70
67050;DHT22;53955;52.442;13.284;2023-07-16T00:36:23;26.50;53.50
67050;DHT22;53955;52.442;13.284;2023-07-16T00:38:49;26.40;53.50
67050;DHT22;53955;52.442;13.284;2023-07-16T00:41:16;26.50;53.50
67050;DHT22;53955;52.442;13.284;2023-07-16T00:43:43;26.50;53.30
67050;DHT22;53955;52.442;13.284;2023-07-16T00:46:10;26.40;53.80
67050;DHT22;53955;52.442;13.284;2023-07-16T00:48:40;26.50;53.90
67050;DHT22;53955;52.442;13.284;2023-07-16T00:51:07;26.50;53.60
67050;DHT22;53955;52.442;13.284;2023-07-16T00:53:33;26.50;53.60
67050;DHT22;53955;52.442;13.284;2023-07-16T00:56:00;26.70;52.70
67050;DHT22;53955;52.442;13.284;2023-07-16T00:58:27;26.70;52.00
67050;DHT22;53955;52.442;13.284;2023-07-16T01:00:53;26.80;51.60
67050;DHT22;53955;52.442;13.284;2023-07-16T01:03:20;26.70;51.50
67050;DHT22;53955;52.442;13.284;2023-07-16T01:05:57;26.70;51.30
67050;DHT22;53955;52.442;13.284;2023-07-16T01:08:32;26.80;51.40
67050;DHT22;53955;52.442;13.284;2023-07-16T01:11:00;26.90;52.90
67050;DHT22;53955;52.442;13.284;2023-07-16T01:13:27;26.80;54.50
67050;DHT22;53955;52.442;13.284;2023-07-16T01:15:54;26.60;55.40
67050;DHT22;53955;52.442;13.284;2023-07-16T01:18:20;26.60;54.60
67050;DHT22;53955;52.442;13.284;2023-07-16T01:20:48;26.50;55.20
67050;DHT22;53955;52.442;13.284;2023-07-16T01:23:29;26.50;53.60
67050;DHT22;53955;52.442;13.284;2023-07-16T01:26:08;26.30;56.20
67050;DHT22;53955;52.442;13.284;2023-07-16T01:31:32;26.20;56.30
67050;DHT22;53955;52.442;13.284;2023-07-16T01:34:00;26.00;56.30
67050;DHT22;53955;52.442;13.284;2023-07-16T01:36:29;26.00;56.10
67050;DHT22;53955;52.442;13.284;2023-07-16T01:38:56;25.80;56.80
67050;DHT22;53955;52.442;13.284;2023-07-16T01:41:23;25.70;57.30
67050;DHT22;53955;52.442;13.284;2023-07-16T01:43:50;25.80;57.70
67050;DHT22;53955;52.442;13.284;2023-07-16T01:46:17;25.80;57.00
67050;DHT22;53955;52.442;13.284;2023-07-16T01:48:46;25.90;55.90
67050;DHT22;53955;52.442;13.284;2023-07-16T01:51:12;25.90;55.80
67050;DHT22;53955;52.442;13.284;2023-07-16T01:53:39;26.00;56.00
67050;DHT22;53955;52.442;13.284;2023-07-16T01:56:06;26.00;55.10
67050;DHT22;53955;52.442;13.284;2023-07-16T01:58:32;26.00;55.00
67050;DHT22;53955;52.442;13.284;2023-07-16T02:00:59;26.00;54.10
67050;DHT22;53955;52.442;13.284;2023-07-16T02:03:25;26.00;54.00
67050;DHT22;53955;52.442;13.284;2023-07-16T02:05:53;26.00;53.90
67050;DHT22;53955;52.442;13.284;2023-07-16T02:08:20;26.20;54.30
67050;DHT22;53955;52.442;13.284;2023-07-16T02:10:47;26.10;53.70
67050;DHT22;53955;52.442;13.284;2023-07-16T02:13:14;26.20;53.00
67050;DHT22;53955;52.442;13.284;2023-07-16T02:15:42;26.30;53.00
67050;DHT22;53955;52.442;13.284;2023-07-16T02:18:09;26.30;53.30
67050;DHT22;53955;52.442;13.284;2023-07-16T02:20:36;26.30;55.40
67050;DHT22;53955;52.442;13.284;2023-07-16T02:23:03;26.30;55.20
67050;DHT22;53955;52.442;13.284;2023-07-16T02:25:32;26.20;56.00
67050;DHT22;53955;52.442;13.284;2023-07-16T02:27:58;26.00;57.10
67050;DHT22;53955;52.442;13.284;2023-07-16T02:30:25;26.00;58.40
67050;DHT22;53955;52.442;13.284;2023-07-16T02:32:51;25.80;58.70
67050;DHT22;53955;52.442;13.284;2023-07-16T02:35:18;25.70;60.30
67050;DHT22;53955;52.442;13.284;2023-07-16T02:37:44;25.70;61.00
67050;DHT22;53955;52.442;13.284;2023-07-16T02:40:12;25.60;61.90
67050;DHT22;53955;52.442;13.284;2023-07-16T02:42:39;25.40;63.20
67050;DHT22;53955;52.442;13.284;2023-07-16T02:45:06;25.30;64.00
67050;DHT22;53955;52.442;13.284;2023-07-16T02:47:33;25.30;64.00
67050;DHT22;53955;52.442;13.284;2023-07-16T02:50:00;25.40;64.50
67050;DHT22;53955;52.442;13.284;2023-07-16T02:52:26;25.30;64.30
67050;DHT22;53955;52.442;13.284;2023-07-16T02:54:53;25.20;64.60
67050;DHT22;53955;52.442;13.284;2023-07-16T02:57:23;25.10;64.90
67050;DHT22;53955;52.442;13.284;2023-07-16T02:59:49;25.10;64.80
67050;DHT22;53955;52.442;13.284;2023-07-16T03:02:18;25.10;65.10
67050;DHT22;53955;52.442;13.284;2023-07-16T03:04:45;25.00;65.50
67050;DHT22;53955;52.442;13.284;2023-07-16T03:07:11;25.00;66.60
67050;DHT22;53955;52.442;13.284;2023-07-16T03:09:38;24.90;66.30
67050;DHT22;53955;52.442;13.284;2023-07-16T03:12:05;25.00;65.50
67050;DHT22;53955;52.442;13.284;2023-07-16T03:14:33;25.00;66.60
67050;DHT22;53955;52.442;13.284;2023-07-16T03:17:00;24.80;67.00
67050;DHT22;53955;52.442;13.284;2023-07-16T03:19:26;24.90;67.10
67050;DHT22;53955;52.442;13.284;2023-07-16T03:21:53;24.80;67.10
67050;DHT22;53955;52.442;13.284;2023-07-16T03:24:20;24.90;66.40
67050;DHT22;53955;52.442;13.284;2023-07-16T03:26:46;24.90;66.80
67050;DHT22;53955;52.442;13.284;2023-07-16T03:29:13;24.90;67.10
67050;DHT22;53955;52.442;13.284;2023-07-16T03:31:41;25.00;66.30
67050;DHT22;53955;52.442;13.284;2023-07-16T03:34:07;25.10;65.60
67050;DHT22;53955;52.442;13.284;2023-07-16T03:36:34;25.20;64.00
67050;DHT22;53955;52.442;13.284;2023-07-16T03:39:00;25.10;64.30
67050;DHT22;53955;52.442;13.284;2023-07-16T03:41:28;25.20;63.70
67050;DHT22;53955;52.442;13.284;2023-07-16T03:43:54;25.10;64.60
67050;DHT22;53955;52.442;13.284;2023-07-16T03:46:21;25.00;65.10
67050;DHT22;53955;52.442;13.284;2023-07-16T03:48:49;24.90;65.20
67050;DHT22;53955;52.442;13.284;2023-07-16T03:51:15;24.80;66.60
67050;DHT22;53955;52.442;13.284;2023-07-16T03:53:43;24.80;67.20
67050;DHT22;53955;52.442;13.284;2023-07-16T03:56:09;24.90;66.40
67050;DHT22;53955;52.442;13.284;2023-07-16T03:58:36;25.10;65.50
67050;DHT22;53955;52.442;13.284;2023-07-16T04:01:02;25.20;65.30
67050;DHT22;53955;52.442;13.284;2023-07-16T04:03:29;25.20;64.90
67050;DHT22;53955;52.442;13.284;2023-07-16T04:06:02;25.30;64.60
67050;DHT22;53955;52.442;13.284;2023-07-16T04:08:29;25.40;64.50
67050;DHT22;53955;52.442;13.284;2023-07-16T04:10:55;25.30;65.00
67050;DHT22;53955;52.442;13.284;2023-07-16T04:13:22;25.40;64.50
67050;DHT22;53955;52.442;13.284;2023-07-16T04:15:49;25.30;64.10
67050;DHT22;53955;52.442;13.284;2023-07-16T04:18:18;25.40;64.10
67050;DHT22;53955;52.442;13.284;2023-07-16T04:20:45;25.50;63.90
67050;DHT22;53955;52.442;13.284;2023-07-16T04:23:12;25.60;64.10
67050;DHT22;53955;52.442;13.284;2023-07-16T04:25:39;25.60;63.90
67050;DHT22;53955;52.442;13.284;2023-07-16T04:28:05;25.70;63.10
67050;DHT22;53955;52.442;13.284;2023-07-16T04:30:32;25.80;62.60
67050;DHT22;53955;52.442;13.284;2023-07-16T04:32:59;25.80;63.00
67050;DHT22;53955;52.442;13.284;2023-07-16T04:35:25;25.80;63.00
67050;DHT22;53955;52.442;13.284;2023-07-16T04:37:52;25.80;63.00
67050;DHT22;53955;52.442;13.284;2023-07-16T04:40:20;25.80;62.40
67050;DHT22;53955;52.442;13.284;2023-07-16T04:42:46;25.80;62.40
67050;DHT22;53955;52.442;13.284;2023-07-16T04:45:13;25.60;62.60
67050;DHT22;53955;52.442;13.284;2023-07-16T04:47:40;25.60;63.10
67050;DHT22;53955;52.442;13.284;2023-07-16T04:50:06;25.60;63.10
67050;DHT22;53955;52.442;13.284;2023-07-16T04:52:33;25.70;63.10
67050;DHT22;53955;52.442;13.284;2023-07-16T04:55:00;25.60;63.10
67050;DHT22;53955;52.442;13.284;2023-07-16T04:57:28;25.50;63.40
67050;DHT22;53955;52.442;13.284;2023-07-16T04:59:54;25.60;62.60
67050;DHT22;53955;52.442;13.284;2023-07-16T05:02:21;25.60;63.00
67050;DHT22;53955;52.442;13.284;2023-07-16T05:04:47;25.60;63.40
67050;DHT22;53955;52.442;13.284;2023-07-16T05:07:14;25.50;63.50
67050;DHT22;53955;52.442;13.284;2023-07-16T05:09:42;25.60;63.60
67050;DHT22;53955;52.442;13.284;2023-07-16T05:12:09;25.50;63.70
67050;DHT22;53955;52.442;13.284;2023-07-16T05:14:44;25.50;63.50
67050;DHT22;53955;52.442;13.284;2023-07-16T05:17:11;25.60;63.30
67050;DHT22;53955;52.442;13.284;2023-07-16T05:19:38;25.60;64.00
67050;DHT22;53955;52.442;13.284;2023-07-16T05:22:05;25.60;63.70
67050;DHT22;53955;52.442;13.284;2023-07-16T05:24:32;25.90;63.00
67050;DHT22;53955;52.442;13.284;2023-07-16T05:26:58;26.00;61.30
67050;DHT22;53955;52.442;13.284;2023-07-16T05:29:25;25.90;61.40
67050;DHT22;53955;52.442;13.284;2023-07-16T05:34:29;26.80;59.10
67050;DHT22;53955;52.442;13.284;2023-07-16T05:36:55;27.90;54.10
67050;DHT22;53955;52.442;13.284;2023-07-16T05:39:22;28.50;51.60
67050;DHT22;53955;52.442;13.284;2023-07-16T05:41:48;28.70;50.50
67050;DHT22;53955;52.442;13.284;2023-07-16T05:44:15;28.80;50.60
67050;DHT22;53955;52.442;13.284;2023-07-16T05:46:42;29.00;49.00
67050;DHT22;53955;52.442;13.284;2023-07-16T05:49:08;29.50;46.80
67050;DHT22;53955;52.442;13.284;2023-07-16T05:51:36;29.80;45.30
67050;DHT22;53955;52.442;13.284;2023-07-16T05:54:03;29.80;46.00
67050;DHT22;53955;52.442;13.284;2023-07-16T05:56:29;31.70;42.40
67050;DHT22;53955;52.442;13.284;2023-07-16T05:58:56;34.40;36.10
67050;DHT22;53955;52.442;13.284;2023-07-16T06:01:22;37.40;30.20
67050;DHT22;53955;52.442;13.284;2023-07-16T06:03:49;39.20;27.30
67050;DHT22;53955;52.442;13.284;2023-07-16T06:06:16;40.50;25.20
67050;DHT22;53955;52.442;13.284;2023-07-16T06:08:44;40.60;24.50
67050;DHT22;53955;52.442;13.284;2023-07-16T06:11:11;41.30;24.30
67050;DHT22;53955;52.442;13.284;2023-07-16T06:13:38;0.20;0.20
67050;DHT22;53955;52.442;13.284;2023-07-16T06:16:05;0.20;0.20
67050;DHT22;53955;52.442;13.284;2023-07-16T06:18:31;0.20;0.20
67050;DHT22;53955;52.442;13.284;2023-07-16T06:20:58;0.20;0.20
67050;DHT22;53955;52.442;13.284;2023-07-16T06:23:25;0.20;0.20
67050;DHT22;53955;52.442;13.284;2023-07-16T06:25:55;0.20;0.20
67050;DHT22;53955;52.442;13.284;2023-07-16T06:28:22;0.20;0.20
67050;DHT22;53955;52.442;13.284;2023-07-16T06:30:49;0.20;0.20
67050;DHT22;53955;52.442;13.284;2023-07-16T06:33:17;0.20;0.20
67050;DHT22;53955;52.442;13.284;2023-07-16T06:35:44;0.20;0.20
67050;DHT22;53955;52.442;13.284;2023-07-16T06:38:11;0.20;0.20
67050;DHT22;53955;52.442;13.284;2023-07-16T06:40:38;0.20;0.20
67050;DHT22;53955;52.442;13.284;2023-07-16T06:43:06;0.20;0.20
67050;DHT22;53955;52.442;13.284;2023-07-16T06:45:33;0.20;0.20
67050;DHT22;53955;52.442;13.284;2023-07-16T06:47:59;0.20;0.20
67050;DHT22;53955;52.442;13.284;2023-07-16T06:50:26;0.20;0.20
67050;DHT22;53955;52.442;13.284;2023-07-16T06:52:52;0.20;0.20
67050;DHT22;53955;52.442;13.284;2023-07-16T06:55:19;0.20;0.20
67050;DHT22;53955;52.442;13.284;2023-07-16T06:57:45;0.20;0.20
67050;DHT22;53955;52.442;13.284;2023-07-16T07:00:13;0.20;0.20
67050;DHT22;53955;52.442;13.284;2023-07-16T07:02:40;0.20;0.20
67050;DHT22;53955;52.442;13.284;2023-07-16T07:05:07;0.20;0.20
67050;DHT22;53955;52.442;13.284;2023-07-16T07:07:34;0.20;0.20
67050;DHT22;53955;52.442;13.284;2023-07-16T07:10:00;0.20;0.20
67050;DHT22;53955;52.442;13.284;2023-07-16T07:12:27;0.20;0.20
67050;DHT22;53955;52.442;13.284;2023-07-16T07:14:54;0.20;0.20
67050;DHT22;53955;52.442;13.284;2023-07-16T07:17:22;0.20;0.20
67050;DHT22;53955;52.442;13.284;2023-07-16T07:19:48;0.20;0.20
67050;DHT22;53955;52.442;13.284;2023-07-16T07:22:15;0.20;0.20
67050;DHT22;53955;52.442;13.284;2023-07-16T07:24:41;0.20;0.20
67050;DHT22;53955;52.442;13.284;2023-07-16T07:27:08;0.20;0.20
67050;DHT22;53955;52.442;13.284;2023-07-16T07:29:34;0.20;0.20
67050;DHT22;53955;52.442;13.284;2023-07-16T07:32:01;0.20;0.20
67050;DHT22;53955;52.442;13.284;2023-07-16T07:34:29;0.20;0.20
67050;DHT22;53955;52.442;13.284;2023-07-16T07:36:55;0.20;0.20
67050;DHT22;53955;52.442;13.284;2023-07-16T07:39:22;0.20;0.20
67050;DHT22;53955;52.442;13.284;2023-07-16T07:41:48;0.20;0.20
67050;DHT22;53955;52.442;13.284;2023-07-16T07:44:15;0.20;0.20
67050;DHT22;53955;52.442;13.284;2023-07-16T07:46:41;0.20;0.20
67050;DHT22;53955;52.442;13.284;2023-07-16T07:49:08;0.20;0.20
67050;DHT22;53955;52.442;13.284;2023-07-16T07:51:36;0.20;0.20
67050;DHT22;53955;52.442;13.284;2023-07-16T07:54:02;0.20;0.20
67050;DHT22;53955;52.442;13.284;2023-07-16T07:56:29;0.20;0.20
67050;DHT22;53955;52.442;13.284;2023-07-16T07:58:56;0.20;0.20
67050;DHT22;53955;52.442;13.284;2023-07-16T08:01:23;0.20;0.20
67050;DHT22;53955;52.442;13.284;2023-07-16T08:03:49;0.20;0.20
67050;DHT22;53955;52.442;13.284;2023-07-16T08:06:16;0.20;0.20
67050;DHT22;53955;52.442;13.284;2023-07-16T08:08:44;0.20;0.20
67050;DHT22;53955;52.442;13.284;2023-07-16T08:11:10;0.20;0.20
67050;DHT22;53955;52.442;13.284;2023-07-16T08:13:37;0.20;0.20
67050;DHT22;53955;52.442;13.284;2023-07-16T08:16:04;0.20;0.20
67050;DHT22;53955;52.442;13.284;2023-07-16T08:18:30;0.20;0.20
67050;DHT22;53955;52.442;13.284;2023-07-16T08:20:57;0.20;0.20
67050;DHT22;53955;52.442;13.284;2023-07-16T08:23:24;0.20;0.20
67050;DHT22;53955;52.442;13.284;2023-07-16T08:25:51;0.20;0.20
67050;DHT22;53955;52.442;13.284;2023-07-16T08:28:18;0.20;0.20
67050;DHT22;53955;52.442;13.284;2023-07-16T08:30:46;0.20;0.20
67050;DHT22;53955;52.442;13.284;2023-07-16T08:33:13;0.20;0.20
67050;DHT22;53955;52.442;13.284;2023-07-16T08:35:41;0.20;0.20
67050;DHT22;53955;52.442;13.284;2023-07-16T08:38:07;0.20;0.20
67050;DHT22;53955;52.442;13.284;2023-07-16T08:40:35;0.20;0.20
67050;DHT22;53955;52.442;13.284;2023-07-16T08:43:03;0.20;0.20
67050;DHT22;53955;52.442;13.284;2023-07-16T08:45:31;0.20;0.20
67050;DHT22;53955;52.442;13.284;2023-07-16T08:48:02;0.20;0.20
67050;DHT22;53955;52.442;13.284;2023-07-16T08:50:28;0.20;0.20
67050;DHT22;53955;52.442;13.284;2023-07-16T08:52:57;0.20;0.20
67050;DHT22;53955;52.442;13.284;2023-07-16T08:55:24;0.20;0.20
67050;DHT22;53955;52.442;13.284;2023-07-16T08:57:51;0.20;0.20
67050;DHT22;53955;52.442;13.284;2023-07-16T09:00:19;0.20;0.20
67050;DHT22;53955;52.442;13.284;2023-07-16T09:02:48;0.20;0.20
67050;DHT22;53955;52.442;13.284;2023-07-16T09:05:15;0.20;0.20
67050;DHT22;53955;52.442;13.284;2023-07-16T09:07:45;0.20;0.20
67050;DHT22;53955;52.442;13.284;2023-07-16T09:10:12;0.20;0.20
67050;DHT22;53955;52.442;13.284;2023-07-16T09:12:41;0.20;0.20
67050;DHT22;53955;52.442;13.284;2023-07-16T09:15:09;0.20;0.20
67050;DHT22;53955;52.442;13.284;2023-07-16T09:17:37;0.20;0.20
67050;DHT22;53955;52.442;13.284;2023-07-16T09:20:04;0.20;0.20
67050;DHT22;53955;52.442;13.284;2023-07-16T09:22:33;0.20;0.20
67050;DHT22;53955;52.442;13.284;2023-07-16T09:24:59;0.20;0.20
67050;DHT22;53955;52.442;13.284;2023-07-16T09:27:28;0.20;0.20
67050;DHT22;53955;52.442;13.284;2023-07-16T09:29:55;0.20;0.20
67050;DHT22;53955;52.442;13.284;2023-07-16T09:32:21;0.20;0.20
67050;DHT22;53955;52.442;13.284;2023-07-16T09:34:50;0.20;0.20
67050;DHT22;53955;52.442;13.284;2023-07-16T09:37:18;0.20;0.20
67050;DHT22;53955;52.442;13.284;2023-07-16T09:39:46;0.20;0.20
67050;DHT22;53955;52.442;13.284;2023-07-16T09:42:13;0.20;0.20
67050;DHT22;53955;52.442;13.284;2023-07-16T09:44:44;0.20;0.20
67050;DHT22;53955;52.442;13.284;2023-07-16T09:47:10;0.20;0.20
67050;DHT22;53955;52.442;13.284;2023-07-16T09:49:37;0.20;0.20
67050;DHT22;53955;52.442;13.284;2023-07-16T09:52:06;0.20;0.20
67050;DHT22;53955;52.442;13.284;2023-07-16T09:54:35;0.20;0.20
67050;DHT22;53955;52.442;13.284;2023-07-16T09:57:05;0.20;0.20
67050;DHT22;53955;52.442;13.284;2023-07-16T09:59:33;0.20;0.20
67050;DHT22;53955;52.442;13.284;2023-07-16T10:02:00;0.20;0.20
67050;DHT22;53955;52.442;13.284;2023-07-16T10:04:37;0.20;0.20
67050;DHT22;53955;52.442;13.284;2023-07-16T10:07:06;0.20;0.20
67050;DHT22;53955;52.442;13.284;2023-07-16T10:09:34;0.20;0.20
67050;DHT22;53955;52.442;13.284;2023-07-16T10:12:11;0.20;0.20
67050;DHT22;53955;52.442;13.284;2023-07-16T10:14:42;0.20;0.20
67050;DHT22;53955;52.442;13.284;2023-07-16T10:17:12;0.20;0.20
67050;DHT22;53955;52.442;13.284;2023-07-16T10:19:55;0.20;0.20
67050;DHT22;53955;52.442;13.284;2023-07-16T10:22:33;0.20;0.20
67050;DHT22;53955;52.442;13.284;2023-07-16T10:25:01;0.20;0.20
67050;DHT22;53955;52.442;13.284;2023-07-16T10:27:29;0.20;0.20
67050;DHT22;53955;52.442;13.284;2023-07-16T10:29:55;0.20;0.20
67050;DHT22;53955;52.442;13.284;2023-07-16T10:32:25;0.20;0.20
67050;DHT22;53955;52.442;13.284;2023-07-16T10:34:52;0.20;0.20
67050;DHT22;53955;52.442;13.284;2023-07-16T10:37:18;0.20;0.20
67050;DHT22;53955;52.442;13.284;2023-07-16T10:39:48;0.20;0.20
67050;DHT22;53955;52.442;13.284;2023-07-16T10:42:16;0.20;0.20
67050;DHT22;53955;52.442;13.284;2023-07-16T10:44:43;0.20;0.20
67050;DHT22;53955;52.442;13.284;2023-07-16T10:47:17;0.20;0.20
67050;DHT22;53955;52.442;13.284;2023-07-16T10:49:45;0.20;0.20
67050;DHT22;53955;52.442;13.284;2023-07-16T10:52:11;0.20;0.20
67050;DHT22;53955;52.442;13.284;2023-07-16T10:54:40;0.20;0.20
67050;DHT22;53955;52.442;13.284;2023-07-16T10:57:08;0.20;0.20
67050;DHT22;53955;52.442;13.284;2023-07-16T10:59:37;0.20;0.20
67050;DHT22;53955;52.442;13.284;2023-07-16T11:02:04;0.20;0.20
67050;DHT22;53955;52.442;13.284;2023-07-16T11:04:33;0.20;0.20
67050;DHT22;53955;52.442;13.284;2023-07-16T11:07:04;0.20;0.20
67050;DHT22;53955;52.442;13.284;2023-07-16T11:09:31;0.20;0.20
67050;DHT22;53955;52.442;13.284;2023-07-16T11:12:05;30.90;28.20
67050;DHT22;53955;52.442;13.284;2023-07-16T11:14:34;30.80;29.40
67050;DHT22;53955;52.442;13.284;2023-07-16T11:17:04;30.50;29.20
67050;DHT22;53955;52.442;13.284;2023-07-16T11:19:32;30.30;30.70
67050;DHT22;53955;52.442;13.284;2023-07-16T11:21:59;30.10;31.10
67050;DHT22;53955;52.442;13.284;2023-07-16T11:24:26;30.30;29.90
67050;DHT22;53955;52.442;13.284;2023-07-16T11:26:54;30.30;30.30
67050;DHT22;53955;52.442;13.284;2023-07-16T11:29:22;30.30;29.90
67050;DHT22;53955;52.442;13.284;2023-07-16T11:31:51;30.70;29.60
67050;DHT22;53955;52.442;13.284;2023-07-16T11:34:20;30.90;28.40
67050;DHT22;53955;52.442;13.284;2023-07-16T11:36:48;31.00;27.40
67050;DHT22;53955;52.442;13.284;2023-07-16T11:39:14;31.20;26.60
67050;DHT22;53955;52.442;13.284;2023-07-16T11:41:41;31.40;26.00
67050;DHT22;53955;52.442;13.284;2023-07-16T11:44:08;31.60;25.80
67050;DHT22;53955;52.442;13.284;2023-07-16T11:46:35;31.70;24.70
67050;DHT22;53955;52.442;13.284;2023-07-16T11:49:03;31.60;23.20
67050;DHT22;53955;52.442;13.284;2023-07-16T11:51:30;31.70;22.10
67050;DHT22;53955;52.442;13.284;2023-07-16T11:53:57;31.50;19.80
67050;DHT22;53955;52.442;13.284;2023-07-16T11:56:23;31.20;18.90
67050;DHT22;53955;52.442;13.284;2023-07-16T11:58:50;31.30;20.90
67050;DHT22;53955;52.442;13.284;2023-07-16T12:01:16;31.30;19.70
67050;DHT22;53955;52.442;13.284;2023-07-16T12:03:43;31.50;19.50
67050;DHT22;53955;52.442;13.284;2023-07-16T12:06:11;31.50;19.40
67050;DHT22;53955;52.442;13.284;2023-07-16T12:08:38;31.70;19.70
67050;DHT22;53955;52.442;13.284;2023-07-16T12:11:04;31.70;19.20
67050;DHT22;53955;52.442;13.284;2023-07-16T12:13:31;31.70;18.10
67050;DHT22;53955;52.442;13.284;2023-07-16T12:15:57;31.60;18.60
67050;DHT22;53955;52.442;13.284;2023-07-16T12:18:24;31.80;19.70
67050;DHT22;53955;52.442;13.284;2023-07-16T12:20:51;31.60;20.70
67050;DHT22;53955;52.442;13.284;2023-07-16T12:23:19;31.40;19.80
67050;DHT22;53955;52.442;13.284;2023-07-16T12:25:45;31.20;18.20
67050;DHT22;53955;52.442;13.284;2023-07-16T12:28:12;31.10;18.40
67050;DHT22;53955;52.442;13.284;2023-07-16T12:30:39;30.90;17.80
67050;DHT22;53955;52.442;13.284;2023-07-16T12:33:06;30.80;18.00
67050;DHT22;53955;52.442;13.284;2023-07-16T12:35:32;31.00;19.00
67050;DHT22;53955;52.442;13.284;2023-07-16T12:37:59;31.20;18.40
67050;DHT22;53955;52.442;13.284;2023-07-16T12:40:29;31.30;16.50
67050;DHT22;53955;52.442;13.284;2023-07-16T12:42:56;31.10;17.00
67050;DHT22;53955;52.442;13.284;2023-07-16T12:45:22;30.90;18.50
67050;DHT22;53955;52.442;13.284;2023-07-16T12:47:49;30.90;18.50
67050;DHT22;53955;52.442;13.284;2023-07-16T12:50:16;30.90;18.30
67050;DHT22;53955;52.442;13.284;2023-07-16T12:52:43;30.90;18.00
67050;DHT22;53955;52.442;13.284;2023-07-16T12:55:10;30.90;17.80
67050;DHT22;53955;52.442;13.284;2023-07-16T12:57:37;31.10;18.10
67050;DHT22;53955;52.442;13.284;2023-07-16T13:00:05;31.20;19.00
67050;DHT22;53955;52.442;13.284;2023-07-16T13:02:35;31.40;18.70
67050;DHT22;53955;52.442;13.284;2023-07-16T13:05:01;31.40;17.90
67050;DHT22;53955;52.442;13.284;2023-07-16T13:07:29;31.50;18.80
67050;DHT22;53955;52.442;13.284;2023-07-16T13:09:56;31.60;17.80
67050;DHT22;53955;52.442;13.284;2023-07-16T13:12:22;31.60;16.90
67050;DHT22;53955;52.442;13.284;2023-07-16T13:14:51;31.70;18.10
67050;DHT22;53955;52.442;13.284;2023-07-16T13:17:17;31.50;18.00
67050;DHT22;53955;52.442;13.284;2023-07-16T13:19:45;31.30;17.50
67050;DHT22;53955;52.442;13.284;2023-07-16T13:22:12;31.30;18.60
67050;DHT22;53955;52.442;13.284;2023-07-16T13:24:38;31.40;18.40
67050;DHT22;53955;52.442;13.284;2023-07-16T13:27:05;31.50;17.60
67050;DHT22;53955;52.442;13.284;2023-07-16T13:29:32;31.50;16.70
67050;DHT22;53955;52.442;13.284;2023-07-16T13:32:00;31.40;16.50
67050;DHT22;53955;52.442;13.284;2023-07-16T13:34:26;31.10;16.00
67050;DHT22;53955;52.442;13.284;2023-07-16T13:36:53;30.90;16.20
67050;DHT22;53955;52.442;13.284;2023-07-16T13:39:19;30.90;16.50
67050;DHT22;53955;52.442;13.284;2023-07-16T13:41:46;30.90;15.70
67050;DHT22;53955;52.442;13.284;2023-07-16T13:44:12;30.90;16.60
67050;DHT22;53955;52.442;13.284;2023-07-16T13:46:39;31.00;16.70
67050;DHT22;53955;52.442;13.284;2023-07-16T13:49:07;31.00;17.00
67050;DHT22;53955;52.442;13.284;2023-07-16T13:51:34;31.20;17.20
67050;DHT22;53955;52.442;13.284;2023-07-16T13:54:00;31.30;16.90
67050;DHT22;53955;52.442;13.284;2023-07-16T13:56:27;31.40;16.60
67050;DHT22;53955;52.442;13.284;2023-07-16T13:58:53;31.50;14.60
67050;DHT22;53955;52.442;13.284;2023-07-16T14:01:21;31.50;16.00
67050;DHT22;53955;52.442;13.284;2023-07-16T14:03:48;31.30;15.00
67050;DHT22;53955;52.442;13.284;2023-07-16T14:06:15;31.20;14.50
67050;DHT22;53955;52.442;13.284;2023-07-16T14:08:42;31.30;15.20
67050;DHT22;53955;52.442;13.284;2023-07-16T14:11:09;31.30;14.30
67050;DHT22;53955;52.442;13.284;2023-07-16T14:13:35;31.20;15.10
67050;DHT22;53955;52.442;13.284;2023-07-16T14:16:02;31.30;16.10
67050;DHT22;53955;52.442;13.284;2023-07-16T14:18:28;31.30;14.90
67050;DHT22;53955;52.442;13.284;2023-07-16T14:20:55;31.30;14.90
67050;DHT22;53955;52.442;13.284;2023-07-16T14:23:23;31.20;14.70
67050;DHT22;53955;52.442;13.284;2023-07-16T14:25:49;31.40;14.80
67050;DHT22;53955;52.442;13.284;2023-07-16T14:28:16;31.40;14.80
67050;DHT22;53955;52.442;13.284;2023-07-16T14:30:42;31.50;14.20
67050;DHT22;53955;52.442;13.284;2023-07-16T14:33:09;31.50;14.10
67050;DHT22;53955;52.442;13.284;2023-07-16T14:35:36;31.50;12.90
67050;DHT22;53955;52.442;13.284;2023-07-16T14:38:02;31.60;14.10
67050;DHT22;53955;52.442;13.284;2023-07-16T14:40:30;31.50;13.50
67050;DHT22;53955;52.442;13.284;2023-07-16T14:42:57;31.60;13.10
67050;DHT22;53955;52.442;13.284;2023-07-16T14:45:23;31.60;12.70
67050;DHT22;53955;52.442;13.284;2023-07-16T14:47:50;31.60;12.60
67050;DHT22;53955;52.442;13.284;2023-07-16T14:50:17;31.40;13.00
67050;DHT22;53955;52.442;13.284;2023-07-16T14:52:43;31.30;13.40
67050;DHT22;53955;52.442;13.284;2023-07-16T14:55:10;31.10;13.80
67050;DHT22;53955;52.442;13.284;2023-07-16T14:57:38;31.30;13.40
67050;DHT22;53955;52.442;13.284;2023-07-16T15:00:06;31.30;13.30
67050;DHT22;53955;52.442;13.284;2023-07-16T15:02:36;31.30;13.00
67050;DHT22;53955;52.442;13.284;2023-07-16T15:05:03;31.50;12.90
67050;DHT22;53955;52.442;13.284;2023-07-16T15:07:31;31.60;13.30
67050;DHT22;53955;52.442;13.284;2023-07-16T15:09:57;31.50;12.70
67050;DHT22;53955;52.442;13.284;2023-07-16T15:12:24;31.50;12.10
67050;DHT22;53955;52.442;13.284;2023-07-16T15:14:52;31.50;12.10
67050;DHT22;53955;52.442;13.284;2023-07-16T15:17:19;31.40;12.00
67050;DHT22;53955;52.442;13.284;2023-07-16T15:19:47;31.40;12.10
67050;DHT22;53955;52.442;13.284;2023-07-16T15:22:13;31.50;13.40
67050;DHT22;53955;52.442;13.284;2023-07-16T15:24:42;31.50;12.60
67050;DHT22;53955;52.442;13.284;2023-07-16T15:27:08;31.50;12.20
67050;DHT22;53955;52.442;13.284;2023-07-16T15:29:35;31.40;12.00
67050;DHT22;53955;52.442;13.284;2023-07-16T15:32:04;31.40;11.90